Victory, Vermont
Current Conditions -  °F | °C
As of 4:55 AM on Saturday 25 Oct 2014 (Local Time) from KCDA Reporting Station
Clear Clear  
Wind Chill:   Ceiling: Unl
Heat Index:   Visibility: 7mi
Dew Point: -1°   Wind: 0mph
Humidity: 94%   Direction: NA
Pressure: 29.76"   Gusts: NA
Location:  44.5627°N, 71.7775°W
Report Text: KCDA 250855Z AUTO 00000KT 7SM CLR 00/00 A2976 RMK AO2 T00031005
Loading
Personal Weather Stations






























Interactive Weather Map
Tropical Storm Tracking
New forecast layout! Learn more

10-Day Weather Forecast

Advertisements
Track Severe Weather on mobile